sensor_id;sensor_type;location;lat;lon;timestamp;P1;durP1;ratioP1;P2;durP2;ratioP2
18340;SDS011;9296;48.084;16.352;2023-07-29T00:01:12;3.60;;;2.05;;
18340;SDS011;9296;48.084;16.352;2023-07-29T00:03:39;2.83;;;2.17;;
18340;SDS011;9296;48.084;16.352;2023-07-29T00:06:07;2.88;;;2.40;;
18340;SDS011;9296;48.084;16.352;2023-07-29T00:08:35;2.88;;;2.38;;
18340;SDS011;9296;48.084;16.352;2023-07-29T00:11:02;2.67;;;2.22;;
18340;SDS011;9296;48.084;16.352;2023-07-29T00:13:30;2.60;;;1.98;;
18340;SDS011;9296;48.084;16.352;2023-07-29T00:15:57;4.72;;;2.10;;
18340;SDS011;9296;48.084;16.352;2023-07-29T00:18:24;2.60;;;2.40;;
18340;SDS011;9296;48.084;16.352;2023-07-29T00:20:52;2.58;;;2.20;;
18340;SDS011;9296;48.084;16.352;2023-07-29T00:23:20;3.08;;;2.22;;
18340;SDS011;9296;48.084;16.352;2023-07-29T00:25:49;2.60;;;2.40;;
18340;SDS011;9296;48.084;16.352;2023-07-29T00:28:16;2.90;;;2.60;;
18340;SDS011;9296;48.084;16.352;2023-07-29T00:30:43;2.88;;;2.33;;
18340;SDS011;9296;48.084;16.352;2023-07-29T00:33:10;4.45;;;2.28;;
18340;SDS011;9296;48.084;16.352;2023-07-29T00:35:37;2.95;;;2.30;;
18340;SDS011;9296;48.084;16.352;2023-07-29T00:38:05;3.67;;;2.33;;
18340;SDS011;9296;48.084;16.352;2023-07-29T00:40:32;3.05;;;2.30;;
18340;SDS011;9296;48.084;16.352;2023-07-29T00:43:03;2.60;;;2.30;;
18340;SDS011;9296;48.084;16.352;2023-07-29T00:45:31;3.08;;;2.10;;
18340;SDS011;9296;48.084;16.352;2023-07-29T00:47:59;2.60;;;2.40;;
18340;SDS011;9296;48.084;16.352;2023-07-29T00:50:26;2.88;;;2.47;;
18340;SDS011;9296;48.084;16.352;2023-07-29T00:52:54;4.88;;;2.40;;
18340;SDS011;9296;48.084;16.352;2023-07-29T00:55:21;2.78;;;2.20;;
18340;SDS011;9296;48.084;16.352;2023-07-29T00:57:48;3.45;;;2.65;;
18340;SDS011;9296;48.084;16.352;2023-07-29T01:00:21;2.97;;;2.50;;
18340;SDS011;9296;48.084;16.352;2023-07-29T01:02:49;3.60;;;2.58;;
18340;SDS011;9296;48.084;16.352;2023-07-29T01:05:17;4.18;;;2.60;;
18340;SDS011;9296;48.084;16.352;2023-07-29T01:10:51;5.32;;;2.50;;
18340;SDS011;9296;48.084;16.352;2023-07-29T01:13:22;3.03;;;2.50;;
18340;SDS011;9296;48.084;16.352;2023-07-29T01:15:54;4.22;;;2.58;;
18340;SDS011;9296;48.084;16.352;2023-07-29T01:18:23;3.60;;;2.50;;
18340;SDS011;9296;48.084;16.352;2023-07-29T01:20:51;3.92;;;2.60;;
18340;SDS011;9296;48.084;16.352;2023-07-29T01:23:24;2.95;;;2.65;;
18340;SDS011;9296;48.084;16.352;2023-07-29T01:25:51;3.13;;;2.55;;
18340;SDS011;9296;48.084;16.352;2023-07-29T01:28:18;3.08;;;2.33;;
18340;SDS011;9296;48.084;16.352;2023-07-29T01:30:46;2.95;;;2.60;;
18340;SDS011;9296;48.084;16.352;2023-07-29T01:33:16;4.20;;;2.67;;
18340;SDS011;9296;48.084;16.352;2023-07-29T01:35:46;2.75;;;2.20;;
18340;SDS011;9296;48.084;16.352;2023-07-29T01:38:17;3.53;;;2.72;;
18340;SDS011;9296;48.084;16.352;2023-07-29T01:40:46;3.17;;;2.63;;
18340;SDS011;9296;48.084;16.352;2023-07-29T01:43:14;3.20;;;2.40;;
18340;SDS011;9296;48.084;16.352;2023-07-29T01:45:43;3.50;;;2.55;;
18340;SDS011;9296;48.084;16.352;2023-07-29T01:48:11;3.60;;;2.70;;
18340;SDS011;9296;48.084;16.352;2023-07-29T01:50:38;3.58;;;2.50;;
18340;SDS011;9296;48.084;16.352;2023-07-29T01:53:06;4.90;;;2.63;;
18340;SDS011;9296;48.084;16.352;2023-07-29T01:55:33;3.80;;;2.50;;
18340;SDS011;9296;48.084;16.352;2023-07-29T01:58:01;2.63;;;2.40;;
18340;SDS011;9296;48.084;16.352;2023-07-29T02:00:28;3.55;;;2.60;;
18340;SDS011;9296;48.084;16.352;2023-07-29T02:02:56;3.00;;;2.58;;
18340;SDS011;9296;48.084;16.352;2023-07-29T02:05:23;5.63;;;3.00;;
18340;SDS011;9296;48.084;16.352;2023-07-29T02:10:37;4.05;;;2.75;;
18340;SDS011;9296;48.084;16.352;2023-07-29T02:13:05;3.00;;;2.47;;
18340;SDS011;9296;48.084;16.352;2023-07-29T02:15:33;4.03;;;3.35;;
18340;SDS011;9296;48.084;16.352;2023-07-29T02:18:00;3.88;;;2.50;;
18340;SDS011;9296;48.084;16.352;2023-07-29T02:20:28;3.95;;;2.92;;
18340;SDS011;9296;48.084;16.352;2023-07-29T02:22:55;4.50;;;2.50;;
18340;SDS011;9296;48.084;16.352;2023-07-29T02:25:22;3.25;;;2.85;;
18340;SDS011;9296;48.084;16.352;2023-07-29T02:27:50;4.03;;;2.88;;
18340;SDS011;9296;48.084;16.352;2023-07-29T02:30:18;2.90;;;2.63;;
18340;SDS011;9296;48.084;16.352;2023-07-29T02:32:45;3.63;;;2.90;;
18340;SDS011;9296;48.084;16.352;2023-07-29T02:35:12;3.85;;;2.80;;
18340;SDS011;9296;48.084;16.352;2023-07-29T02:37:40;3.97;;;2.80;;
18340;SDS011;9296;48.084;16.352;2023-07-29T02:40:07;4.68;;;2.97;;
18340;SDS011;9296;48.084;16.352;2023-07-29T02:42:35;4.13;;;2.80;;
18340;SDS011;9296;48.084;16.352;2023-07-29T02:45:02;3.25;;;2.67;;
18340;SDS011;9296;48.084;16.352;2023-07-29T02:47:31;3.95;;;2.63;;
18340;SDS011;9296;48.084;16.352;2023-07-29T02:49:58;3.95;;;2.60;;
18340;SDS011;9296;48.084;16.352;2023-07-29T02:52:25;3.30;;;2.90;;
18340;SDS011;9296;48.084;16.352;2023-07-29T02:54:53;3.45;;;2.67;;
18340;SDS011;9296;48.084;16.352;2023-07-29T02:57:20;4.97;;;3.22;;
18340;SDS011;9296;48.084;16.352;2023-07-29T02:59:47;3.75;;;3.20;;
18340;SDS011;9296;48.084;16.352;2023-07-29T03:02:14;3.42;;;2.65;;
18340;SDS011;9296;48.084;16.352;2023-07-29T03:04:43;3.25;;;2.50;;
18340;SDS011;9296;48.084;16.352;2023-07-29T03:07:10;7.82;;;3.58;;
18340;SDS011;9296;48.084;16.352;2023-07-29T03:09:38;4.07;;;2.92;;
18340;SDS011;9296;48.084;16.352;2023-07-29T03:12:07;5.68;;;3.10;;
18340;SDS011;9296;48.084;16.352;2023-07-29T03:14:34;3.40;;;2.65;;
18340;SDS011;9296;48.084;16.352;2023-07-29T03:17:02;3.78;;;2.80;;
18340;SDS011;9296;48.084;16.352;2023-07-29T03:19:30;3.63;;;3.00;;
18340;SDS011;9296;48.084;16.352;2023-07-29T03:21:58;4.95;;;2.90;;
18340;SDS011;9296;48.084;16.352;2023-07-29T03:24:26;5.47;;;2.85;;
18340;SDS011;9296;48.084;16.352;2023-07-29T03:26:53;6.38;;;3.08;;
18340;SDS011;9296;48.084;16.352;2023-07-29T03:29:21;3.40;;;3.10;;
18340;SDS011;9296;48.084;16.352;2023-07-29T03:31:48;3.42;;;2.47;;
18340;SDS011;9296;48.084;16.352;2023-07-29T03:34:15;3.90;;;3.05;;
18340;SDS011;9296;48.084;16.352;2023-07-29T03:36:42;3.13;;;2.83;;
18340;SDS011;9296;48.084;16.352;2023-07-29T03:39:14;3.58;;;3.08;;
18340;SDS011;9296;48.084;16.352;2023-07-29T03:41:41;3.35;;;2.47;;
18340;SDS011;9296;48.084;16.352;2023-07-29T03:44:09;4.15;;;2.78;;
18340;SDS011;9296;48.084;16.352;2023-07-29T03:46:36;3.20;;;2.35;;
18340;SDS011;9296;48.084;16.352;2023-07-29T03:49:03;2.92;;;2.33;;
18340;SDS011;9296;48.084;16.352;2023-07-29T03:51:30;2.60;;;2.22;;
18340;SDS011;9296;48.084;16.352;2023-07-29T03:53:57;4.05;;;2.35;;
18340;SDS011;9296;48.084;16.352;2023-07-29T03:56:26;3.85;;;2.15;;
18340;SDS011;9296;48.084;16.352;2023-07-29T03:58:53;3.70;;;2.40;;
18340;SDS011;9296;48.084;16.352;2023-07-29T04:01:20;3.30;;;2.03;;
18340;SDS011;9296;48.084;16.352;2023-07-29T04:03:47;1.85;;;1.65;;
18340;SDS011;9296;48.084;16.352;2023-07-29T04:06:16;2.45;;;1.90;;
18340;SDS011;9296;48.084;16.352;2023-07-29T04:08:43;2.45;;;1.70;;
18340;SDS011;9296;48.084;16.352;2023-07-29T04:11:11;2.30;;;1.80;;
18340;SDS011;9296;48.084;16.352;2023-07-29T04:13:39;2.00;;;1.80;;
18340;SDS011;9296;48.084;16.352;2023-07-29T04:16:07;2.35;;;1.90;;
18340;SDS011;9296;48.084;16.352;2023-07-29T04:18:34;2.22;;;1.70;;
18340;SDS011;9296;48.084;16.352;2023-07-29T04:21:01;2.50;;;1.60;;
18340;SDS011;9296;48.084;16.352;2023-07-29T04:23:29;2.58;;;1.60;;
18340;SDS011;9296;48.084;16.352;2023-07-29T04:25:56;2.65;;;1.98;;
18340;SDS011;9296;48.084;16.352;2023-07-29T04:28:23;2.17;;;1.60;;
18340;SDS011;9296;48.084;16.352;2023-07-29T04:30:52;2.40;;;1.80;;
18340;SDS011;9296;48.084;16.352;2023-07-29T04:33:20;2.45;;;1.63;;
18340;SDS011;9296;48.084;16.352;2023-07-29T04:35:47;2.75;;;1.80;;
18340;SDS011;9296;48.084;16.352;2023-07-29T04:38:33;1.80;;;1.55;;
18340;SDS011;9296;48.084;16.352;2023-07-29T04:41:00;3.40;;;1.50;;
18340;SDS011;9296;48.084;16.352;2023-07-29T04:43:27;2.05;;;1.60;;
18340;SDS011;9296;48.084;16.352;2023-07-29T04:45:56;3.90;;;1.63;;
18340;SDS011;9296;48.084;16.352;2023-07-29T04:48:23;5.50;;;1.70;;
18340;SDS011;9296;48.084;16.352;2023-07-29T04:50:50;2.65;;;1.70;;
18340;SDS011;9296;48.084;16.352;2023-07-29T04:56:21;3.85;;;1.80;;
18340;SDS011;9296;48.084;16.352;2023-07-29T04:58:48;1.90;;;1.70;;
18340;SDS011;9296;48.084;16.352;2023-07-29T05:01:16;1.90;;;1.70;;
18340;SDS011;9296;48.084;16.352;2023-07-29T05:03:43;2.17;;;1.90;;
18340;SDS011;9296;48.084;16.352;2023-07-29T05:06:10;2.08;;;1.77;;
18340;SDS011;9296;48.084;16.352;2023-07-29T05:11:42;2.55;;;2.08;;
18340;SDS011;9296;48.084;16.352;2023-07-29T05:14:10;2.83;;;2.05;;
18340;SDS011;9296;48.084;16.352;2023-07-29T05:16:39;2.40;;;1.60;;
18340;SDS011;9296;48.084;16.352;2023-07-29T05:19:06;2.25;;;1.80;;
18340;SDS011;9296;48.084;16.352;2023-07-29T05:21:33;2.55;;;1.90;;
18340;SDS011;9296;48.084;16.352;2023-07-29T05:24:00;2.30;;;2.00;;
18340;SDS011;9296;48.084;16.352;2023-07-29T05:26:27;2.25;;;1.80;;
18340;SDS011;9296;48.084;16.352;2023-07-29T05:28:55;4.55;;;2.20;;
18340;SDS011;9296;48.084;16.352;2023-07-29T05:31:22;2.40;;;1.73;;
18340;SDS011;9296;48.084;16.352;2023-07-29T05:33:50;2.00;;;1.80;;
18340;SDS011;9296;48.084;16.352;2023-07-29T05:36:18;2.65;;;1.83;;
18340;SDS011;9296;48.084;16.352;2023-07-29T05:38:45;3.10;;;1.83;;
18340;SDS011;9296;48.084;16.352;2023-07-29T05:41:12;4.07;;;1.85;;
18340;SDS011;9296;48.084;16.352;2023-07-29T05:43:39;4.00;;;2.10;;
18340;SDS011;9296;48.084;16.352;2023-07-29T05:46:08;2.63;;;1.80;;
18340;SDS011;9296;48.084;16.352;2023-07-29T05:48:35;1.65;;;1.55;;
18340;SDS011;9296;48.084;16.352;2023-07-29T05:51:04;1.98;;;1.75;;
18340;SDS011;9296;48.084;16.352;2023-07-29T05:53:31;2.33;;;1.85;;
18340;SDS011;9296;48.084;16.352;2023-07-29T05:55:59;3.25;;;1.65;;
18340;SDS011;9296;48.084;16.352;2023-07-29T05:58:26;1.65;;;1.55;;
18340;SDS011;9296;48.084;16.352;2023-07-29T06:00:53;2.47;;;1.73;;
18340;SDS011;9296;48.084;16.352;2023-07-29T06:03:20;2.53;;;1.73;;
18340;SDS011;9296;48.084;16.352;2023-07-29T06:05:48;3.78;;;1.77;;
18340;SDS011;9296;48.084;16.352;2023-07-29T06:08:17;2.58;;;1.67;;
18340;SDS011;9296;48.084;16.352;2023-07-29T06:10:44;1.80;;;1.50;;
18340;SDS011;9296;48.084;16.352;2023-07-29T06:13:11;2.25;;;1.52;;
18340;SDS011;9296;48.084;16.352;2023-07-29T06:15:38;2.42;;;1.55;;
18340;SDS011;9296;48.084;16.352;2023-07-29T06:18:05;2.55;;;1.75;;
18340;SDS011;9296;48.084;16.352;2023-07-29T06:20:32;1.80;;;1.30;;
18340;SDS011;9296;48.084;16.352;2023-07-29T06:23:00;2.42;;;1.88;;
18340;SDS011;9296;48.084;16.352;2023-07-29T06:25:28;1.83;;;1.40;;
18340;SDS011;9296;48.084;16.352;2023-07-29T06:27:55;1.85;;;1.45;;
18340;SDS011;9296;48.084;16.352;2023-07-29T06:30:23;2.08;;;1.50;;
18340;SDS011;9296;48.084;16.352;2023-07-29T06:32:50;2.22;;;1.58;;
18340;SDS011;9296;48.084;16.352;2023-07-29T06:35:17;2.08;;;1.60;;
18340;SDS011;9296;48.084;16.352;2023-07-29T06:37:45;2.28;;;1.50;;
18340;SDS011;9296;48.084;16.352;2023-07-29T06:40:12;1.35;;;1.25;;
18340;SDS011;9296;48.084;16.352;2023-07-29T06:42:40;2.63;;;1.70;;
18340;SDS011;9296;48.084;16.352;2023-07-29T06:45:08;2.53;;;1.58;;
18340;SDS011;9296;48.084;16.352;2023-07-29T06:47:36;2.42;;;1.50;;
18340;SDS011;9296;48.084;16.352;2023-07-29T06:50:04;12.43;;;1.92;;
18340;SDS011;9296;48.084;16.352;2023-07-29T06:52:31;1.67;;;1.48;;
18340;SDS011;9296;48.084;16.352;2023-07-29T06:54:58;1.63;;;1.38;;
18340;SDS011;9296;48.084;16.352;2023-07-29T06:57:25;2.10;;;1.50;;
18340;SDS011;9296;48.084;16.352;2023-07-29T06:59:54;2.92;;;1.88;;
18340;SDS011;9296;48.084;16.352;2023-07-29T07:02:21;1.95;;;1.65;;
18340;SDS011;9296;48.084;16.352;2023-07-29T07:04:48;2.53;;;1.60;;
18340;SDS011;9296;48.084;16.352;2023-07-29T07:07:15;2.08;;;1.60;;
18340;SDS011;9296;48.084;16.352;2023-07-29T07:09:43;2.47;;;1.50;;
18340;SDS011;9296;48.084;16.352;2023-07-29T07:12:10;1.65;;;1.55;;
18340;SDS011;9296;48.084;16.352;2023-07-29T07:14:37;2.10;;;1.70;;
18340;SDS011;9296;48.084;16.352;2023-07-29T07:17:06;1.63;;;1.52;;
18340;SDS011;9296;48.084;16.352;2023-07-29T07:19:33;1.70;;;1.60;;
18340;SDS011;9296;48.084;16.352;2023-07-29T07:22:00;1.55;;;1.45;;
18340;SDS011;9296;48.084;16.352;2023-07-29T07:24:27;2.20;;;1.90;;
18340;SDS011;9296;48.084;16.352;2023-07-29T07:26:54;2.10;;;1.60;;
18340;SDS011;9296;48.084;16.352;2023-07-29T07:29:22;2.17;;;1.60;;
18340;SDS011;9296;48.084;16.352;2023-07-29T07:31:49;1.88;;;1.58;;
18340;SDS011;9296;48.084;16.352;2023-07-29T07:34:19;1.90;;;1.60;;
18340;SDS011;9296;48.084;16.352;2023-07-29T07:36:46;2.50;;;1.80;;
18340;SDS011;9296;48.084;16.352;2023-07-29T07:39:13;1.83;;;1.50;;
18340;SDS011;9296;48.084;16.352;2023-07-29T07:41:40;1.80;;;1.70;;
18340;SDS011;9296;48.084;16.352;2023-07-29T07:44:08;2.20;;;1.60;;
18340;SDS011;9296;48.084;16.352;2023-07-29T07:46:36;2.53;;;1.60;;
18340;SDS011;9296;48.084;16.352;2023-07-29T07:49:03;2.42;;;1.60;;
18340;SDS011;9296;48.084;16.352;2023-07-29T07:51:32;1.73;;;1.63;;
18340;SDS011;9296;48.084;16.352;2023-07-29T07:53:59;1.80;;;1.60;;
18340;SDS011;9296;48.084;16.352;2023-07-29T07:56:26;2.65;;;1.75;;
18340;SDS011;9296;48.084;16.352;2023-07-29T07:58:53;1.92;;;1.60;;
18340;SDS011;9296;48.084;16.352;2023-07-29T08:01:21;1.40;;;1.30;;
18340;SDS011;9296;48.084;16.352;2023-07-29T08:03:48;1.63;;;1.40;;
18340;SDS011;9296;48.084;16.352;2023-07-29T08:06:15;2.20;;;1.88;;
18340;SDS011;9296;48.084;16.352;2023-07-29T08:09:02;1.80;;;1.70;;
18340;SDS011;9296;48.084;16.352;2023-07-29T08:11:30;2.00;;;1.80;;
18340;SDS011;9296;48.084;16.352;2023-07-29T08:13:58;1.73;;;1.63;;
18340;SDS011;9296;48.084;16.352;2023-07-29T08:16:25;1.70;;;1.60;;
18340;SDS011;9296;48.084;16.352;2023-07-29T08:18:52;1.73;;;1.60;;
18340;SDS011;9296;48.084;16.352;2023-07-29T08:21:20;2.28;;;1.40;;
18340;SDS011;9296;48.084;16.352;2023-07-29T08:23:47;1.70;;;1.60;;
18340;SDS011;9296;48.084;16.352;2023-07-29T08:26:15;1.95;;;1.75;;
18340;SDS011;9296;48.084;16.352;2023-07-29T08:28:43;1.80;;;1.70;;
18340;SDS011;9296;48.084;16.352;2023-07-29T08:31:10;2.38;;;1.50;;
18340;SDS011;9296;48.084;16.352;2023-07-29T08:33:37;1.63;;;1.52;;
18340;SDS011;9296;48.084;16.352;2023-07-29T08:36:04;1.75;;;1.65;;
18340;SDS011;9296;48.084;16.352;2023-07-29T08:41:37;2.38;;;1.40;;
18340;SDS011;9296;48.084;16.352;2023-07-29T08:44:06;2.88;;;1.58;;
18340;SDS011;9296;48.084;16.352;2023-07-29T08:46:37;1.40;;;1.30;;
18340;SDS011;9296;48.084;16.352;2023-07-29T08:49:05;1.40;;;1.30;;
18340;SDS011;9296;48.084;16.352;2023-07-29T08:51:32;1.40;;;1.30;;
18340;SDS011;9296;48.084;16.352;2023-07-29T08:54:00;1.35;;;1.25;;
18340;SDS011;9296;48.084;16.352;2023-07-29T08:56:28;1.95;;;1.20;;
18340;SDS011;9296;48.084;16.352;2023-07-29T08:58:56;1.30;;;1.20;;
18340;SDS011;9296;48.084;16.352;2023-07-29T09:01:25;2.28;;;1.40;;
18340;SDS011;9296;48.084;16.352;2023-07-29T09:03:52;2.15;;;1.63;;
18340;SDS011;9296;48.084;16.352;2023-07-29T09:06:19;1.88;;;1.30;;
18340;SDS011;9296;48.084;16.352;2023-07-29T09:08:48;1.67;;;1.50;;
18340;SDS011;9296;48.084;16.352;2023-07-29T09:11:16;1.48;;;1.30;;
18340;SDS011;9296;48.084;16.352;2023-07-29T09:13:44;1.30;;;1.20;;
18340;SDS011;9296;48.084;16.352;2023-07-29T09:16:13;1.40;;;1.30;;
18340;SDS011;9296;48.084;16.352;2023-07-29T09:18:40;1.25;;;1.15;;
18340;SDS011;9296;48.084;16.352;2023-07-29T09:21:07;1.48;;;1.38;;
18340;SDS011;9296;48.084;16.352;2023-07-29T09:23:38;1.67;;;1.40;;
18340;SDS011;9296;48.084;16.352;2023-07-29T09:26:06;1.40;;;1.30;;
18340;SDS011;9296;48.084;16.352;2023-07-29T09:28:33;1.30;;;1.20;;
18340;SDS011;9296;48.084;16.352;2023-07-29T09:31:01;1.60;;;1.50;;
18340;SDS011;9296;48.084;16.352;2023-07-29T09:33:30;1.80;;;1.48;;
18340;SDS011;9296;48.084;16.352;2023-07-29T09:36:01;1.80;;;1.70;;
18340;SDS011;9296;48.084;16.352;2023-07-29T09:38:29;1.83;;;1.67;;
18340;SDS011;9296;48.084;16.352;2023-07-29T09:40:56;1.90;;;1.77;;
18340;SDS011;9296;48.084;16.352;2023-07-29T09:43:29;2.05;;;1.80;;
18340;SDS011;9296;48.084;16.352;2023-07-29T09:45:59;1.73;;;1.63;;
18340;SDS011;9296;48.084;16.352;2023-07-29T09:48:27;1.70;;;1.60;;
18340;SDS011;9296;48.084;16.352;2023-07-29T09:50:56;1.90;;;1.80;;
18340;SDS011;9296;48.084;16.352;2023-07-29T09:53:23;1.75;;;1.65;;
18340;SDS011;9296;48.084;16.352;2023-07-29T09:55:51;1.70;;;1.60;;
18340;SDS011;9296;48.084;16.352;2023-07-29T09:58:26;2.00;;;1.80;;
18340;SDS011;9296;48.084;16.352;2023-07-29T10:00:54;2.00;;;1.60;;
18340;SDS011;9296;48.084;16.352;2023-07-29T10:03:21;3.65;;;1.88;;
18340;SDS011;9296;48.084;16.352;2023-07-29T10:05:48;1.80;;;1.70;;
18340;SDS011;9296;48.084;16.352;2023-07-29T10:08:17;2.30;;;1.80;;
18340;SDS011;9296;48.084;16.352;2023-07-29T10:10:45;1.90;;;1.70;;
18340;SDS011;9296;48.084;16.352;2023-07-29T10:13:13;2.03;;;1.70;;
18340;SDS011;9296;48.084;16.352;2023-07-29T10:15:40;1.80;;;1.70;;
18340;SDS011;9296;48.084;16.352;2023-07-29T10:18:08;3.17;;;1.75;;
18340;SDS011;9296;48.084;16.352;2023-07-29T10:20:35;1.90;;;1.77;;
18340;SDS011;9296;48.084;16.352;2023-07-29T10:26:09;3.08;;;1.98;;
18340;SDS011;9296;48.084;16.352;2023-07-29T10:28:40;2.55;;;2.33;;
18340;SDS011;9296;48.084;16.352;2023-07-29T10:31:07;2.95;;;2.05;;
18340;SDS011;9296;48.084;16.352;2023-07-29T10:33:34;2.25;;;2.00;;
18340;SDS011;9296;48.084;16.352;2023-07-29T10:36:01;2.80;;;2.33;;
18340;SDS011;9296;48.084;16.352;2023-07-29T10:38:47;2.85;;;2.55;;
18340;SDS011;9296;48.084;16.352;2023-07-29T10:41:15;2.88;;;2.10;;
18340;SDS011;9296;48.084;16.352;2023-07-29T10:43:43;2.40;;;2.20;;
18340;SDS011;9296;48.084;16.352;2023-07-29T10:46:16;2.70;;;2.50;;
18340;SDS011;9296;48.084;16.352;2023-07-29T10:48:44;3.35;;;2.95;;
18340;SDS011;9296;48.084;16.352;2023-07-29T10:51:22;2.50;;;2.30;;
18340;SDS011;9296;48.084;16.352;2023-07-29T10:53:51;2.53;;;2.33;;
18340;SDS011;9296;48.084;16.352;2023-07-29T10:56:25;2.75;;;2.55;;
18340;SDS011;9296;48.084;16.352;2023-07-29T10:58:54;2.60;;;2.40;;
18340;SDS011;9296;48.084;16.352;2023-07-29T11:01:26;2.53;;;2.33;;
18340;SDS011;9296;48.084;16.352;2023-07-29T11:04:00;3.33;;;2.30;;
18340;SDS011;9296;48.084;16.352;2023-07-29T11:06:28;2.95;;;2.30;;
18340;SDS011;9296;48.084;16.352;2023-07-29T11:08:55;3.35;;;2.50;;
18340;SDS011;9296;48.084;16.352;2023-07-29T11:11:23;4.20;;;2.75;;
18340;SDS011;9296;48.084;16.352;2023-07-29T11:13:51;2.65;;;2.30;;
18340;SDS011;9296;48.084;16.352;2023-07-29T11:16:19;2.90;;;2.60;;
18340;SDS011;9296;48.084;16.352;2023-07-29T11:18:46;3.05;;;2.75;;
18340;SDS011;9296;48.084;16.352;2023-07-29T11:21:14;2.63;;;2.42;;
18340;SDS011;9296;48.084;16.352;2023-07-29T11:24:00;3.00;;;2.40;;
18340;SDS011;9296;48.084;16.352;2023-07-29T11:26:28;2.88;;;2.58;;
18340;SDS011;9296;48.084;16.352;2023-07-29T11:28:57;3.00;;;2.70;;
18340;SDS011;9296;48.084;16.352;2023-07-29T11:31:38;2.92;;;2.35;;
18340;SDS011;9296;48.084;16.352;2023-07-29T11:34:06;2.38;;;2.17;;
18340;SDS011;9296;48.084;16.352;2023-07-29T11:36:33;2.63;;;2.40;;
18340;SDS011;9296;48.084;16.352;2023-07-29T11:39:08;3.88;;;2.67;;
18340;SDS011;9296;48.084;16.352;2023-07-29T11:41:36;2.63;;;2.30;;
18340;SDS011;9296;48.084;16.352;2023-07-29T11:44:05;4.30;;;2.63;;
18340;SDS011;9296;48.084;16.352;2023-07-29T11:46:36;2.72;;;2.45;;
18340;SDS011;9296;48.084;16.352;2023-07-29T11:49:03;3.35;;;2.35;;
18340;SDS011;9296;48.084;16.352;2023-07-29T11:51:31;3.30;;;2.60;;
18340;SDS011;9296;48.084;16.352;2023-07-29T11:54:17;2.95;;;2.17;;
18340;SDS011;9296;48.084;16.352;2023-07-29T11:56:46;2.63;;;2.42;;
18340;SDS011;9296;48.084;16.352;2023-07-29T11:59:16;4.18;;;2.50;;
18340;SDS011;9296;48.084;16.352;2023-07-29T12:01:43;2.42;;;2.20;;
18340;SDS011;9296;48.084;16.352;2023-07-29T12:04:10;2.67;;;2.47;;
18340;SDS011;9296;48.084;16.352;2023-07-29T12:06:38;3.47;;;2.28;;
18340;SDS011;9296;48.084;16.352;2023-07-29T12:09:06;2.40;;;2.17;;
18340;SDS011;9296;48.084;16.352;2023-07-29T12:11:34;2.65;;;2.45;;
18340;SDS011;9296;48.084;16.352;2023-07-29T12:14:01;2.50;;;2.20;;
18340;SDS011;9296;48.084;16.352;2023-07-29T12:16:30;3.33;;;2.35;;
18340;SDS011;9296;48.084;16.352;2023-07-29T12:19:00;2.40;;;2.20;;
18340;SDS011;9296;48.084;16.352;2023-07-29T12:21:27;2.35;;;2.15;;
18340;SDS011;9296;48.084;16.352;2023-07-29T12:26:59;2.88;;;2.45;;
18340;SDS011;9296;48.084;16.352;2023-07-29T12:29:27;2.28;;;2.05;;
18340;SDS011;9296;48.084;16.352;2023-07-29T12:31:58;2.70;;;2.50;;
18340;SDS011;9296;48.084;16.352;2023-07-29T12:34:26;3.30;;;2.30;;
18340;SDS011;9296;48.084;16.352;2023-07-29T12:36:54;2.65;;;2.15;;
18340;SDS011;9296;48.084;16.352;2023-07-29T12:39:23;1.92;;;1.83;;
18340;SDS011;9296;48.084;16.352;2023-07-29T12:41:51;3.08;;;2.40;;
18340;SDS011;9296;48.084;16.352;2023-07-29T12:44:18;2.47;;;2.28;;
18340;SDS011;9296;48.084;16.352;2023-07-29T12:46:45;2.65;;;2.40;;
18340;SDS011;9296;48.084;16.352;2023-07-29T12:49:14;2.60;;;2.40;;
18340;SDS011;9296;48.084;16.352;2023-07-29T12:51:41;2.40;;;2.20;;
18340;SDS011;9296;48.084;16.352;2023-07-29T12:57:28;2.33;;;1.98;;
18340;SDS011;9296;48.084;16.352;2023-07-29T12:59:55;5.13;;;2.00;;
18340;SDS011;9296;48.084;16.352;2023-07-29T13:02:22;4.85;;;2.30;;
18340;SDS011;9296;48.084;16.352;2023-07-29T13:04:51;2.30;;;2.10;;
18340;SDS011;9296;48.084;16.352;2023-07-29T13:07:18;2.00;;;1.70;;
18340;SDS011;9296;48.084;16.352;2023-07-29T13:09:45;2.25;;;1.73;;
18340;SDS011;9296;48.084;16.352;2023-07-29T13:12:12;3.08;;;1.50;;
18340;SDS011;9296;48.084;16.352;2023-07-29T13:14:39;4.20;;;1.70;;
18340;SDS011;9296;48.084;16.352;2023-07-29T13:17:07;2.72;;;1.67;;
18340;SDS011;9296;48.084;16.352;2023-07-29T13:19:34;1.83;;;1.52;;
18340;SDS011;9296;48.084;16.352;2023-07-29T13:22:02;11.27;;;3.30;;
18340;SDS011;9296;48.084;16.352;2023-07-29T13:27:33;3.47;;;1.63;;
18340;SDS011;9296;48.084;16.352;2023-07-29T13:30:00;2.78;;;1.70;;
18340;SDS011;9296;48.084;16.352;2023-07-29T13:32:28;1.80;;;1.60;;
18340;SDS011;9296;48.084;16.352;2023-07-29T13:34:55;2.17;;;1.50;;
18340;SDS011;9296;48.084;16.352;2023-07-29T13:37:23;2.67;;;1.52;;
18340;SDS011;9296;48.084;16.352;2023-07-29T13:42:54;7.80;;;1.98;;
18340;SDS011;9296;48.084;16.352;2023-07-29T13:45:21;6.85;;;1.90;;
18340;SDS011;9296;48.084;16.352;2023-07-29T13:47:49;4.80;;;1.55;;
18340;SDS011;9296;48.084;16.352;2023-07-29T13:50:16;1.73;;;1.52;;
18340;SDS011;9296;48.084;16.352;2023-07-29T13:52:45;3.10;;;2.15;;
18340;SDS011;9296;48.084;16.352;2023-07-29T13:58:17;4.60;;;1.60;;
18340;SDS011;9296;48.084;16.352;2023-07-29T14:00:44;1.80;;;1.70;;
18340;SDS011;9296;48.084;16.352;2023-07-29T14:03:11;1.90;;;1.63;;
18340;SDS011;9296;48.084;16.352;2023-07-29T14:05:39;3.50;;;1.48;;
18340;SDS011;9296;48.084;16.352;2023-07-29T14:08:07;2.25;;;1.80;;
18340;SDS011;9296;48.084;16.352;2023-07-29T14:11:11;1.60;;;1.50;;
18340;SDS011;9296;48.084;16.352;2023-07-29T14:13:38;1.95;;;1.65;;
18340;SDS011;9296;48.084;16.352;2023-07-29T14:16:05;2.78;;;1.70;;
18340;SDS011;9296;48.084;16.352;2023-07-29T14:18:32;2.88;;;1.73;;
18340;SDS011;9296;48.084;16.352;2023-07-29T14:20:59;2.05;;;1.85;;
18340;SDS011;9296;48.084;16.352;2023-07-29T14:26:38;2.38;;;1.95;;
18340;SDS011;9296;48.084;16.352;2023-07-29T14:29:05;1.95;;;1.75;;
18340;SDS011;9296;48.084;16.352;2023-07-29T14:31:32;1.98;;;1.73;;
18340;SDS011;9296;48.084;16.352;2023-07-29T14:33:59;2.53;;;1.73;;
18340;SDS011;9296;48.084;16.352;2023-07-29T14:36:26;3.33;;;1.75;;
18340;SDS011;9296;48.084;16.352;2023-07-29T14:41:59;2.78;;;1.50;;
18340;SDS011;9296;48.084;16.352;2023-07-29T14:44:26;1.92;;;1.73;;
18340;SDS011;9296;48.084;16.352;2023-07-29T14:46:54;3.03;;;1.60;;
18340;SDS011;9296;48.084;16.352;2023-07-29T14:49:21;3.00;;;1.80;;
18340;SDS011;9296;48.084;16.352;2023-07-29T14:51:48;1.98;;;1.40;;
18340;SDS011;9296;48.084;16.352;2023-07-29T15:00:21;2.38;;;1.63;;
18340;SDS011;9296;48.084;16.352;2023-07-29T15:02:48;2.33;;;1.85;;
18340;SDS011;9296;48.084;16.352;2023-07-29T15:05:15;2.67;;;1.90;;
18340;SDS011;9296;48.084;16.352;2023-07-29T15:07:43;2.22;;;1.83;;
18340;SDS011;9296;48.084;16.352;2023-07-29T15:13:14;1.90;;;1.50;;
18340;SDS011;9296;48.084;16.352;2023-07-29T15:15:43;2.08;;;1.60;;
18340;SDS011;9296;48.084;16.352;2023-07-29T15:18:10;2.28;;;1.88;;
18340;SDS011;9296;48.084;16.352;2023-07-29T15:20:38;2.88;;;1.80;;
18340;SDS011;9296;48.084;16.352;2023-07-29T15:23:05;1.90;;;1.80;;
18340;SDS011;9296;48.084;16.352;2023-07-29T15:25:32;2.05;;;1.40;;
18340;SDS011;9296;48.084;16.352;2023-07-29T15:27:59;2.47;;;1.90;;
18340;SDS011;9296;48.084;16.352;2023-07-29T15:30:26;1.95;;;1.48;;
18340;SDS011;9296;48.084;16.352;2023-07-29T15:32:55;2.65;;;1.63;;
18340;SDS011;9296;48.084;16.352;2023-07-29T15:35:22;2.33;;;2.00;;
18340;SDS011;9296;48.084;16.352;2023-07-29T15:37:49;2.38;;;2.17;;
18340;SDS011;9296;48.084;16.352;2023-07-29T15:40:17;4.18;;;2.22;;
18340;SDS011;9296;48.084;16.352;2023-07-29T15:42:44;2.65;;;2.42;;